EBBRLSGG

Guest
Details From EBBR - Brussels Airport
To LSGG - Geneva
Flight Number -
Tags generated
Created
Modified
Stats Distance 292 nm / 541 km
Max Altitude 35,000 ft / 10,668 m
Waypoints 6
Social Downloads 0
Likes 0
Share VATSIM

Download

Looking for another format? Having issues loading an existing format? Contact us
Advertisement - Login to hide

Notes

Basic altitude profile: - Ascent Rate: 2500ft/min - Ascent Speed: 250kts - Cruise Altitude: 32000ft - Cruise Speed: 420kts - Descent Rate: 1500ft/min - Descent Speed: 250kts Options: - Use NATs: yes - Use PACOTS: yes - Use low airways: yes - Use high airways: yes

Route

EBBR MEDOX 4900N0500E SDI TB3 RLP LSGG

ID Type Via Altitude (ft/m) Position (lat/lon) Dist (leg/tot) Name
O EBBR APT - 0 / 0 50.89995 / 4.49281 - / 0 nm Brussels Airport
MEDOX FIX - 34,600 / 10,546 49.33361 / 5.09694 96 / 96 nm
4900N0500E LATLON - 35,000 / 10,668 49.00000 / 5.00000 20 / 117 nm
SDI VOR - 32,600 / 9,936 48.63700 / 4.88919 22 / 139 nm
RLP VOR TB3 (AWY-HI) 22,700 / 6,919 47.90631 / 5.24917 46 / 185 nm ROLAMPONT VOR-DME
O LSGG APT - 0 / 0 46.23775 / 6.10617 106 / 291 nm Geneva

Altitude Profile

Advertisement - Login to hide

Weather


0- 5 10 15 20 25 30 35+ Temperature / °C

Clouds and Precipitation
Forecast for 2018-08-18 12:00 UTC. Updated 32 minutes ago

Ground ~20,000 ft ~40,000 ft Winds

EBBR

Details ICAO EBBR (BRU)
Name Brussels Airport
Region Belgium
Timezone Europe/Brussels (UTC+2.0)
Stats Elevation 184 ft / 56 m (AMSL)
Location 50.900000° 4.492780°
Runways 3
Magnetic Variation 1.216° E

METAR

EBBR 180950Z 24007KT 210V270 9999 FEW023 19/13 Q1023 NOSIG

Decode

TAF

TAF EBBR 180500Z 1806/1912 24006KT 9999 SCT025= TAF EDDF 180500Z 1806/1912 34005KT CAVOK

Decode

Departure Runways

ID Width Length Bearing (true/mag) Surface Threshold Overrun Markings Lighting
01 164 ft / 50 m 9,814 ft / 2,991 m 14.39° / 13.17° ASPHALT 148 ft / 45 m 0 ft / 0 m PREC-APP CENTERLINE EDGE THRESHOLD ALSF-II TDZ REIL-OMNI
07L 148 ft / 45 m 11,933 ft / 3,637 m 65.29° / 64.07° ASPHALT 843 ft / 257 m 0 ft / 0 m PREC-APP CENTERLINE EDGE THRESHOLD TDZ REIL-OMNI
07R 148 ft / 45 m 10,550 ft / 3,216 m 69.91° / 68.69° ASPHALT 358 ft / 109 m 0 ft / 0 m PREC-APP CENTERLINE EDGE THRESHOLD REIL-OMNI
19 164 ft / 50 m 9,814 ft / 2,991 m 194.39° / 193.17° ASPHALT 718 ft / 219 m 0 ft / 0 m PREC-APP CENTERLINE EDGE THRESHOLD ALSF-I TDZ REIL-OMNI
25L 148 ft / 45 m 10,550 ft / 3,216 m 249.95° / 248.73° ASPHALT 0 ft / 0 m 0 ft / 0 m PREC-APP CENTERLINE EDGE THRESHOLD ALSF-II TDZ REIL-OMNI
25R 148 ft / 45 m 11,933 ft / 3,637 m 245.33° / 244.11° ASPHALT 981 ft / 299 m 0 ft / 0 m PREC-APP CENTERLINE EDGE THRESHOLD ALSF-II TDZ REIL-OMNI

LSGG

Details ICAO LSGG (GVA)
Name Geneva Airport
Region Switzerland
Timezone Europe/Zurich (UTC+2.0)
Stats Elevation 1,410 ft / 430 m (AMSL)
Location 46.237700° 6.106100°
Runways 2
Magnetic Variation 1.820° E

METAR

LSGG 180950Z 05007KT 350V080 9999 FEW035 23/15 Q1022 NOSIG

Decode

TAF

TAF LSGG 180825Z 1809/1915 05013KT 9999 FEW045 TX26/1815Z TN15/1905Z TX28/1915Z BECMG 1818/1820 VRB03KT

Decode

Destination Runways

ID Width Length Bearing (true/mag) Surface Threshold Overrun Markings Lighting
05 164 ft / 50 m 12,806 ft / 3,903 m 45.46° / 43.64° CONCRETE 1,073 ft / 327 m 0 ft / 0 m PREC-APP CENTERLINE EDGE THRESHOLD ALSF-I TDZ REIL-UNI
05L 98 ft / 30 m 2,703 ft / 824 m 45.31° / 43.49° GRASS 610 ft / 186 m 0 ft / 0 m NONE
23 164 ft / 50 m 12,806 ft / 3,903 m 225.48° / 223.66° CONCRETE 0 ft / 0 m 0 ft / 0 m PREC-APP CENTERLINE EDGE THRESHOLD ALSF-II TDZ REIL-UNI
23R 98 ft / 30 m 2,703 ft / 824 m 225.31° / 223.49° GRASS 1,001 ft / 305 m 0 ft / 0 m NONE

Approach Navaids

Runway Type Ident Frequency Range Bearing (true/mag) Slope Elevation
05 DME INE 110.90 MHz 27 nm / 50 km - - 1,460 ft / 445 m (AMSL)
05 LOC-ILS INE 110.90 MHz 18 nm / 33 km 45.48° / 43.66 ° - 1,410 ft / 430 m (AMSL)
05 GS INE 110.90 MHz 18 nm / 33 km 45.48° / 43.66 ° 3.00° 1,410 ft / 430 m (AMSL)
23 DME ISW 109.90 MHz 30 nm / 56 km - - 1,384 ft / 422 m (AMSL)
23 LOC-ILS ISW 109.90 MHz 20 nm / 37 km 225.48° / 223.66 ° - 1,410 ft / 430 m (AMSL)
23 GS ISW 109.90 MHz 20 nm / 37 km 225.48° / 223.66 ° 3.00° 1,410 ft / 430 m (AMSL)

Popular Alternatives